Date,TemperatureHighF,TemperatureAvgF,TemperatureLowF,DewpointHighF,DewpointAvgF,DewpointLowF,HumidityHigh,HumidityAvg,HumidityLow,PressureMaxIn,PressureMinIn,WindSpeedMaxMPH,WindSpeedAvgMPH,GustSpeedMaxMPH,PrecipitationSumIn
2013-3-9,55,46,40,-100,-100,-100,0,0,100,30.14,30.00,7,3,18,0.25
2013-3-10,63,51,40,-100,-100,-100,0,0,100,30.21,30.10,9,4,20,0.00
2013-3-11,72,55,39,-100,-100,-100,0,0,100,30.21,30.12,5,3,12,0.00
2013-3-12,82,60,44,-100,-100,-100,0,0,100,30.20,30.08,6,3,11,0.00
2013-3-13,91,68,50,-100,-100,-100,0,0,100,30.23,30.16,7,4,13,0.00
2013-3-14,90,72,57,-100,-100,-100,0,0,100,30.24,30.17,8,4,16,0.00
2013-3-15,92,71,55,-100,-100,-100,0,0,100,30.19,30.10,8,4,17,0.00
2013-3-16,89,69,50,-100,-100,-100,0,0,100,30.10,29.94,11,4,23,0.00
2013-3-17,83,65,50,-100,-100,-100,0,0,100,30.07,29.93,11,4,28,0.00
2013-3-18,82,65,49,-100,-100,-100,0,0,100,30.11,30.01,7,3,15,0.00
2013-3-19,81,64,50,-100,-100,-100,0,0,100,29.96,29.82,7,4,18,0.00
2013-3-20,85,68,51,-100,-100,-100,0,0,100,29.96,29.84,6,3,12,0.00
2013-3-21,82,67,52,-100,-100,-100,0,0,100,29.83,29.69,7,3,15,0.00
2013-3-22,82,66,50,-100,-100,-100,0,0,100,29.74,29.62,9,4,25,0.00
2013-3-23,74,61,49,-100,-100,-100,0,0,100,29.89,29.72,8,3,22,0.00
2013-3-24,76,58,39,-100,-100,-100,0,0,100,29.88,29.80,6,3,14,0.00
2013-3-25,79,62,43,-100,-100,-100,0,0,100,29.92,29.79,6,3,13,0.00
2013-3-26,90,67,51,-100,-100,-100,0,0,100,29.92,29.80,8,4,20,0.00
2013-3-27,90,69,51,-100,-100,-100,0,0,100,29.92,29.79,11,5,23,0.00
2013-3-28,86,67,51,-100,-100,-100,0,0,100,29.99,29.87,9,3,20,0.00
2013-3-29,91,68,50,-100,-100,-100,0,0,100,30.01,29.94,6,3,15,0.00
2013-3-30,87,69,55,-100,-100,-100,0,0,100,30.00,29.90,7,3,22,0.00
2013-3-31,86,67,49,-100,-100,-100,0,0,100,29.96,29.89,7,3,14,0.00
2013-4-1,84,67,51,-100,-100,-100,0,0,100,29.92,29.86,8,3,18,0.00
2013-4-2,97,62,44,-100,-100,-100,0,0,100,29.89,29.80,7,3,16,0.00
2013-4-3,83,64,47,-100,-100,-100,0,0,100,29.99,29.84,7,3,16,0.00
2013-4-4,86,69,54,-100,-100,-100,0,0,100,29.99,29.90,7,3,17,0.00
2013-4-5,84,71,55,-100,-100,-100,0,0,100,29.94,29.86,8,4,21,0.00
2013-4-6,83,67,50,-100,-100,-100,0,0,100,29.91,29.83,7,3,16,0.00
2013-4-7,83,68,53,-100,-100,-100,0,0,100,29.86,29.75,7,3,16,0.00
2013-4-8,79,67,55,-100,-100,-100,0,0,100,29.73,29.42,22,10,40,0.00
2013-4-9,63,53,44,-100,-100,-100,0,0,100,29.77,29.55,9,5,23,0.11
2013-4-10,67,55,40,-100,-100,-100,0,0,100,29.91,29.75,7,3,17,0.00
2013-4-11,78,63,41,-100,-100,-100,0,0,100,29.90,29.74,5,3,13,0.00
2013-4-12,74,64,52,-100,-100,-100,0,0,100,29.79,29.67,5,3,18,0.00
2013-4-13,83,67,48,-100,-100,-100,0,0,100,29.79,29.72,7,4,15,0.00
2013-4-14,82,70,56,-100,-100,-100,0,0,100,29.75,29.67,13,6,26,0.00
2013-4-15,84,72,62,-100,-100,-100,0,0,100,29.75,29.67,14,9,28,0.00
2013-4-16,81,71,60,-100,-100,-100,0,0,100,29.78,29.68,16,10,36,0.00
2013-4-17,66,58,52,-100,-100,-100,0,0,100,29.92,29.70,11,5,25,0.00
2013-4-18,72,56,43,-100,-100,-100,0,0,100,30.03,29.87,9,4,27,0.00
2013-4-19,79,62,46,-100,-100,-100,0,0,100,30.02,29.89,7,4,14,0.00
2013-4-20,83,65,47,-100,-100,-100,0,0,100,29.94,29.82,7,4,17,0.00
2013-4-21,87,70,50,-100,-100,-100,0,0,100,29.98,29.87,7,3,21,0.00
2013-4-22,89,72,52,-100,-100,-100,0,0,100,29.93,29.76,7,3,17,0.00
2013-4-23,86,73,57,-100,-100,-100,0,0,100,29.86,29.76,8,3,27,0.00
2013-4-24,87,72,55,-100,-100,-100,0,0,100,29.90,29.82,12,4,22,0.00
2013-4-25,80,72,60,-100,-100,-100,0,0,100,29.98,29.83,17,7,31,0.00
2013-10-16,78,61,47,-100,-100,-100,0,0,100,29.98,29.90,2,0,10,0.00
2013-10-17,79,62,47,-100,-100,-100,0,0,100,29.97,29.86,3,0,11,0.00
2013-10-18,83,63,48,-100,-100,-100,0,0,100,29.96,29.86,3,0,11,0.00
2013-10-19,84,67,54,-100,-100,-100,0,0,100,29.95,29.91,5,1,14,0.00
2013-10-20,83,64,48,-100,-100,-100,0,0,100,29.93,29.83,4,0,13,0.00
2013-10-21,83,64,48,-100,-100,-100,0,0,100,29.96,29.86,5,2,20,0.00
2013-10-22,88,68,55,-100,-100,-100,0,0,100,29.96,29.92,8,4,15,0.00
2013-10-23,89,73,59,-100,-100,-100,0,0,100,29.92,29.82,8,4,18,0.00
2013-10-24,87,70,56,-100,-100,-100,0,0,100,29.97,29.88,9,4,17,0.00
2013-10-25,84,68,54,-100,-100,-100,0,0,100,30.04,29.95,5,3,14,0.00
2013-10-26,85,69,54,-100,-100,-100,0,0,100,30.05,29.95,5,3,12,0.00
2013-10-27,87,68,57,-100,-100,-100,0,0,100,29.97,29.77,8,3,18,0.00
2013-10-28,78,67,58,-100,-100,-100,0,0,100,29.86,29.79,14,6,29,0.00
2013-10-29,78,68,55,-100,-100,-100,0,0,100,29.89,29.81,16,9,30,0.00
2013-10-30,67,54,44,-100,-100,-100,0,0,100,29.97,29.82,7,3,17,0.00
2013-10-31,74,56,42,-100,-100,-100,0,0,100,30.01,29.94,5,3,14,0.00
2013-11-1,79,59,44,-100,-100,-100,0,0,100,30.04,29.97,5,3,12,0.00
2013-11-2,84,66,49,-100,-100,-100,0,0,100,29.98,29.86,9,4,27,0.00
2013-11-3,78,69,55,-100,-100,-100,0,0,100,29.92,29.75,7,3,18,0.00
2013-11-4,77,59,50,-100,-100,-100,0,0,100,29.79,29.69,10,4,21,0.10
2013-11-5,69,58,48,-100,-100,-100,0,0,100,30.06,29.81,6,2,12,0.00
2013-11-6,74,57,44,-100,-100,-100,0,0,100,30.13,30.04,9,5,16,0.00
2013-11-7,82,62,46,-100,-100,-100,0,0,100,30.12,30.01,6,3,13,0.00
2013-11-8,81,66,55,-100,-100,-100,0,0,100,30.03,29.95,7,4,12,0.00
2013-11-9,81,64,50,-100,-100,-100,0,0,100,30.04,29.96,5,3,13,0.00
2013-11-10,84,67,54,-100,-100,-100,0,0,100,30.05,30.00,6,3,11,0.00
2013-11-11,86,68,54,-100,-100,-100,0,0,100,30.04,29.97,6,3,12,0.00
2013-11-12,87,71,61,-100,-100,-100,0,0,100,30.12,30.04,8,4,16,0.00
2013-11-13,79,68,60,-100,-100,-100,0,0,100,30.10,29.98,7,3,12,0.00
2013-11-14,80,63,53,-100,-100,-100,0,0,100,29.97,29.85,8,4,15,0.00
2013-11-15,73,64,54,-100,-100,-100,0,0,100,29.82,29.62,15,7,30,0.00
2013-11-16,71,62,54,-100,-100,-100,0,0,100,29.83,29.68,10,4,25,0.00
2013-11-17,73,59,48,-100,-100,-100,0,0,100,29.98,29.85,8,2,18,0.00
2013-11-18,77,62,51,-100,-100,-100,0,0,100,30.00,29.94,6,3,12,0.00
2013-11-19,76,59,49,-100,-100,-100,0,0,100,29.97,29.83,7,3,16,0.00
2013-11-20,71,60,48,-100,-100,-100,0,0,100,29.85,29.77,8,3,17,0.00
2013-11-21,70,58,50,-100,-100,-100,0,0,100,29.89,29.80,9,2,17,0.10
2013-11-22,65,54,47,-100,-100,-100,0,0,100,29.87,29.72,13,5,32,0.92
2013-11-23,53,47,45,-100,-100,-100,0,0,100,29.94,29.85,4,1,11,1.43
2013-11-24,57,47,41,-100,-100,-100,0,0,100,30.01,29.89,7,4,13,0.00
2013-11-25,61,46,37,-100,-100,-100,0,0,100,30.09,29.94,7,5,15,0.00
2013-11-26,67,52,40,-100,-100,-100,0,0,100,30.11,30.03,6,3,12,0.00
2013-11-27,65,51,44,-100,-100,-100,0,0,100,30.03,29.90,5,2,11,0.00
2013-11-28,71,53,43,-100,-100,-100,0,0,100,29.99,29.86,7,5,14,0.00
2013-11-29,73,57,49,-100,-100,-100,0,0,100,30.06,29.97,7,4,14,0.00
2013-11-30,70,55,48,-100,-100,-100,0,0,100,30.06,29.97,5,2,10,0.00
2013-12-1,73,56,46,-100,-100,-100,0,0,100,30.09,29.99,5,2,9,0.00
2013-12-2,70,53,42,-100,-100,-100,0,0,100,30.06,29.87,5,2,9,0.00
2013-12-3,71,55,44,-100,-100,-100,0,0,100,29.84,29.67,8,2,19,0.00
2013-12-4,64,57,44,-100,-100,-100,0,0,100,29.82,29.63,13,6,30,0.44
2013-12-5,48,44,38,-100,-100,-100,0,0,100,29.92,29.75,3,1,9,0.10
2013-12-6,54,39,29,-100,-100,-100,0,0,100,30.01,29.91,4,2,9,0.00
2013-12-7,55,40,29,-100,-100,-100,0,0,100,29.95,29.84,8,3,16,0.00
2013-12-8,53,46,40,-100,-100,-100,0,0,100,29.99,29.86,5,2,13,0.00
2013-12-9,54,42,32,-100,-100,-100,0,0,100,30.12,29.90,6,2,12,0.00
2013-12-10,58,43,33,-100,-100,-100,0,0,100,30.11,29.96,8,5,15,0.00
2013-12-11,68,53,42,-100,-100,-100,0,0,100,30.05,29.93,8,6,15,0.00
2013-12-12,69,56,46,-100,-100,-100,0,0,100,30.04,29.95,8,4,15,0.00
2013-12-13,62,47,37,-100,-100,-100,0,0,100,30.03,29.94,6,2,13,0.00
2013-12-14,62,49,37,-100,-100,-100,0,0,100,30.14,30.00,10,4,20,0.00
2013-12-15,69,52,41,-100,-100,-100,0,0,100,30.14,30.06,8,4,15,0.00
2013-12-16,74,60,46,-100,-100,-100,0,0,100,30.09,30.01,8,4,14,0.00
2013-12-17,79,61,51,-100,-100,-100,0,0,100,30.09,30.01,8,6,17,0.00
2013-12-18,76,62,52,-100,-100,-100,0,0,100,30.02,29.82,8,4,16,0.00
2013-12-19,67,60,53,-100,-100,-100,0,0,100,29.78,29.62,14,7,28,0.00
2013-12-20,51,46,42,-100,-100,-100,0,0,100,29.70,29.52,11,3,28,0.50
2013-12-21,51,46,41,-100,-100,-100,0,0,100,29.90,29.68,8,3,17,0.01
2013-12-22,57,45,35,-100,-100,-100,0,0,100,30.13,29.90,4,1,8,0.01
2013-12-23,65,48,36,-100,-100,-100,0,0,100,30.18,30.08,6,3,11,0.00
2013-12-24,68,51,39,-100,-100,-100,0,0,100,30.10,30.00,8,4,15,0.00
2013-12-25,66,54,40,-100,-100,-100,0,0,100,30.10,30.00,9,3,16,0.00
2013-12-26,66,51,42,-100,-100,-100,0,0,100,30.08,30.00,6,2,10,0.00
2013-12-27,68,52,41,-100,-100,-100,0,0,100,30.08,29.99,7,4,14,0.00
2013-12-28,63,52,37,-100,-100,-100,0,0,100,30.01,29.85,6,2,12,0.00
2013-12-29,64,51,40,-100,-100,-100,0,0,100,30.01,29.81,6,4,13,0.00
2013-12-30,67,52,42,-100,-100,-100,0,0,100,30.12,29.99,7,3,15,0.00
2013-12-31,72,53,41,-100,-100,-100,0,0,100,30.11,29.99,7,3,14,0.00
2014-1-1,69,57,42,-100,-100,-100,0,0,100,30.03,29.95,6,3,11,0.00
2014-1-2,75,57,44,-100,-100,-100,0,0,100,30.05,29.98,7,3,14,0.00